sensor_id;sensor_type;location;lat;lon;timestamp;P1;durP1;ratioP1;P2;durP2;ratioP2
9420;SDS011;4749;51.398;5.466;2022-07-23T00:00:25;5.35;;;3.53;;
9420;SDS011;4749;51.398;5.466;2022-07-23T00:02:52;4.85;;;3.85;;
9420;SDS011;4749;51.398;5.466;2022-07-23T00:05:19;8.48;;;3.70;;
9420;SDS011;4749;51.398;5.466;2022-07-23T00:07:46;4.55;;;3.45;;
9420;SDS011;4749;51.398;5.466;2022-07-23T00:10:13;5.68;;;3.72;;
9420;SDS011;4749;51.398;5.466;2022-07-23T00:12:41;5.47;;;3.67;;
9420;SDS011;4749;51.398;5.466;2022-07-23T00:15:17;9.15;;;3.35;;
9420;SDS011;4749;51.398;5.466;2022-07-23T00:17:44;5.53;;;4.35;;
9420;SDS011;4749;51.398;5.466;2022-07-23T00:20:12;7.07;;;3.63;;
9420;SDS011;4749;51.398;5.466;2022-07-23T00:23:13;5.22;;;3.75;;
9420;SDS011;4749;51.398;5.466;2022-07-23T00:25:34;8.25;;;3.78;;
9420;SDS011;4749;51.398;5.466;2022-07-23T00:28:01;6.95;;;4.00;;
9420;SDS011;4749;51.398;5.466;2022-07-23T00:30:29;6.28;;;3.65;;
9420;SDS011;4749;51.398;5.466;2022-07-23T00:32:59;4.88;;;4.00;;
9420;SDS011;4749;51.398;5.466;2022-07-23T00:35:30;6.95;;;3.80;;
9420;SDS011;4749;51.398;5.466;2022-07-23T00:38:01;5.80;;;3.60;;
9420;SDS011;4749;51.398;5.466;2022-07-23T00:40:29;5.05;;;3.63;;
9420;SDS011;4749;51.398;5.466;2022-07-23T00:42:57;4.70;;;3.88;;
9420;SDS011;4749;51.398;5.466;2022-07-23T00:45:25;6.65;;;4.25;;
9420;SDS011;4749;51.398;5.466;2022-07-23T00:47:53;5.97;;;4.03;;
9420;SDS011;4749;51.398;5.466;2022-07-23T00:50:20;5.47;;;4.22;;
9420;SDS011;4749;51.398;5.466;2022-07-23T00:52:48;5.72;;;4.30;;
9420;SDS011;4749;51.398;5.466;2022-07-23T00:55:15;6.80;;;4.07;;
9420;SDS011;4749;51.398;5.466;2022-07-23T00:57:42;5.03;;;3.90;;
9420;SDS011;4749;51.398;5.466;2022-07-23T01:00:11;6.18;;;3.72;;
9420;SDS011;4749;51.398;5.466;2022-07-23T01:02:40;8.07;;;4.43;;
9420;SDS011;4749;51.398;5.466;2022-07-23T01:05:08;5.72;;;3.67;;
9420;SDS011;4749;51.398;5.466;2022-07-23T01:07:36;7.18;;;4.25;;
9420;SDS011;4749;51.398;5.466;2022-07-23T01:10:04;5.22;;;3.72;;
9420;SDS011;4749;51.398;5.466;2022-07-23T01:12:53;9.45;;;4.03;;
9420;SDS011;4749;51.398;5.466;2022-07-23T01:15:21;6.32;;;3.78;;
9420;SDS011;4749;51.398;5.466;2022-07-23T01:17:48;5.20;;;3.33;;
9420;SDS011;4749;51.398;5.466;2022-07-23T01:20:16;5.53;;;4.00;;
9420;SDS011;4749;51.398;5.466;2022-07-23T01:22:43;6.00;;;3.72;;
9420;SDS011;4749;51.398;5.466;2022-07-23T01:25:11;6.32;;;3.97;;
9420;SDS011;4749;51.398;5.466;2022-07-23T01:27:38;6.43;;;4.05;;
9420;SDS011;4749;51.398;5.466;2022-07-23T01:30:05;4.07;;;3.28;;
9420;SDS011;4749;51.398;5.466;2022-07-23T01:32:33;6.22;;;4.03;;
9420;SDS011;4749;51.398;5.466;2022-07-23T01:35:00;5.70;;;3.78;;
9420;SDS011;4749;51.398;5.466;2022-07-23T01:37:28;6.55;;;3.50;;
9420;SDS011;4749;51.398;5.466;2022-07-23T01:39:55;4.00;;;3.65;;
9420;SDS011;4749;51.398;5.466;2022-07-23T01:42:22;6.82;;;4.43;;
9420;SDS011;4749;51.398;5.466;2022-07-23T01:44:49;6.22;;;3.95;;
9420;SDS011;4749;51.398;5.466;2022-07-23T01:47:16;4.70;;;3.70;;
9420;SDS011;4749;51.398;5.466;2022-07-23T01:49:44;4.50;;;3.53;;
9420;SDS011;4749;51.398;5.466;2022-07-23T01:52:11;7.50;;;3.85;;
9420;SDS011;4749;51.398;5.466;2022-07-23T01:54:38;6.32;;;4.43;;
9420;SDS011;4749;51.398;5.466;2022-07-23T01:57:06;5.35;;;3.63;;
9420;SDS011;4749;51.398;5.466;2022-07-23T01:59:33;6.00;;;4.03;;
9420;SDS011;4749;51.398;5.466;2022-07-23T02:02:01;7.80;;;4.70;;
9420;SDS011;4749;51.398;5.466;2022-07-23T02:04:30;5.90;;;3.83;;
9420;SDS011;4749;51.398;5.466;2022-07-23T02:06:58;7.47;;;3.63;;
9420;SDS011;4749;51.398;5.466;2022-07-23T02:09:25;5.65;;;3.83;;
9420;SDS011;4749;51.398;5.466;2022-07-23T02:11:52;5.28;;;3.83;;
9420;SDS011;4749;51.398;5.466;2022-07-23T02:14:19;4.70;;;4.20;;
9420;SDS011;4749;51.398;5.466;2022-07-23T02:16:46;6.22;;;4.47;;
9420;SDS011;4749;51.398;5.466;2022-07-23T02:19:13;6.97;;;4.10;;
9420;SDS011;4749;51.398;5.466;2022-07-23T02:21:41;5.15;;;3.95;;
9420;SDS011;4749;51.398;5.466;2022-07-23T02:24:08;4.82;;;4.18;;
9420;SDS011;4749;51.398;5.466;2022-07-23T02:26:35;4.75;;;4.20;;
9420;SDS011;4749;51.398;5.466;2022-07-23T02:29:03;5.85;;;4.85;;
9420;SDS011;4749;51.398;5.466;2022-07-23T02:31:31;5.75;;;4.47;;
9420;SDS011;4749;51.398;5.466;2022-07-23T02:33:59;7.10;;;4.47;;
9420;SDS011;4749;51.398;5.466;2022-07-23T02:36:27;8.13;;;4.53;;
9420;SDS011;4749;51.398;5.466;2022-07-23T02:38:55;7.15;;;4.75;;
9420;SDS011;4749;51.398;5.466;2022-07-23T02:41:22;5.20;;;4.05;;
9420;SDS011;4749;51.398;5.466;2022-07-23T02:43:49;5.38;;;4.45;;
9420;SDS011;4749;51.398;5.466;2022-07-23T02:46:16;5.57;;;4.13;;
9420;SDS011;4749;51.398;5.466;2022-07-23T02:48:45;4.70;;;4.18;;
9420;SDS011;4749;51.398;5.466;2022-07-23T02:51:12;6.60;;;4.28;;
9420;SDS011;4749;51.398;5.466;2022-07-23T02:53:40;5.30;;;3.83;;
9420;SDS011;4749;51.398;5.466;2022-07-23T02:56:08;6.30;;;4.30;;
9420;SDS011;4749;51.398;5.466;2022-07-23T02:58:35;6.13;;;4.43;;
9420;SDS011;4749;51.398;5.466;2022-07-23T03:01:02;4.50;;;4.05;;
9420;SDS011;4749;51.398;5.466;2022-07-23T03:03:30;5.03;;;3.78;;
9420;SDS011;4749;51.398;5.466;2022-07-23T03:05:57;5.88;;;4.20;;
9420;SDS011;4749;51.398;5.466;2022-07-23T03:08:24;9.20;;;4.68;;
9420;SDS011;4749;51.398;5.466;2022-07-23T03:10:51;4.35;;;3.95;;
9420;SDS011;4749;51.398;5.466;2022-07-23T03:13:18;4.70;;;4.20;;
9420;SDS011;4749;51.398;5.466;2022-07-23T03:15:45;5.93;;;4.95;;
9420;SDS011;4749;51.398;5.466;2022-07-23T03:18:13;6.90;;;4.50;;
9420;SDS011;4749;51.398;5.466;2022-07-23T03:20:40;6.13;;;4.53;;
9420;SDS011;4749;51.398;5.466;2022-07-23T03:23:07;6.18;;;4.60;;
9420;SDS011;4749;51.398;5.466;2022-07-23T03:25:34;4.88;;;4.38;;
9420;SDS011;4749;51.398;5.466;2022-07-23T03:28:01;7.20;;;4.28;;
9420;SDS011;4749;51.398;5.466;2022-07-23T03:30:28;6.65;;;4.20;;
9420;SDS011;4749;51.398;5.466;2022-07-23T03:32:55;5.43;;;4.28;;
9420;SDS011;4749;51.398;5.466;2022-07-23T03:35:22;5.80;;;4.35;;
9420;SDS011;4749;51.398;5.466;2022-07-23T03:37:49;5.95;;;3.97;;
9420;SDS011;4749;51.398;5.466;2022-07-23T03:40:17;6.10;;;4.38;;
9420;SDS011;4749;51.398;5.466;2022-07-23T03:42:44;6.97;;;4.50;;
9420;SDS011;4749;51.398;5.466;2022-07-23T03:45:12;4.85;;;4.18;;
9420;SDS011;4749;51.398;5.466;2022-07-23T03:47:39;5.57;;;4.40;;
9420;SDS011;4749;51.398;5.466;2022-07-23T03:50:06;5.32;;;4.15;;
9420;SDS011;4749;51.398;5.466;2022-07-23T03:52:34;7.40;;;4.78;;
9420;SDS011;4749;51.398;5.466;2022-07-23T03:55:02;7.55;;;4.13;;
9420;SDS011;4749;51.398;5.466;2022-07-23T03:57:30;5.45;;;4.43;;
9420;SDS011;4749;51.398;5.466;2022-07-23T03:59:57;5.57;;;4.55;;
9420;SDS011;4749;51.398;5.466;2022-07-23T04:02:24;6.72;;;4.63;;
9420;SDS011;4749;51.398;5.466;2022-07-23T04:04:52;4.90;;;4.25;;
9420;SDS011;4749;51.398;5.466;2022-07-23T04:07:19;5.05;;;4.13;;
9420;SDS011;4749;51.398;5.466;2022-07-23T04:09:46;5.45;;;4.28;;
9420;SDS011;4749;51.398;5.466;2022-07-23T04:12:13;9.60;;;4.43;;
9420;SDS011;4749;51.398;5.466;2022-07-23T04:14:41;7.20;;;4.70;;
9420;SDS011;4749;51.398;5.466;2022-07-23T04:17:08;4.97;;;4.47;;
9420;SDS011;4749;51.398;5.466;2022-07-23T04:19:35;5.60;;;4.50;;
9420;SDS011;4749;51.398;5.466;2022-07-23T04:22:06;5.70;;;4.78;;
9420;SDS011;4749;51.398;5.466;2022-07-23T04:24:34;6.68;;;5.07;;
9420;SDS011;4749;51.398;5.466;2022-07-23T04:27:01;7.75;;;4.93;;
9420;SDS011;4749;51.398;5.466;2022-07-23T04:29:29;6.63;;;4.57;;
9420;SDS011;4749;51.398;5.466;2022-07-23T04:31:56;6.97;;;5.05;;
9420;SDS011;4749;51.398;5.466;2022-07-23T04:34:23;8.48;;;5.55;;
9420;SDS011;4749;51.398;5.466;2022-07-23T04:36:53;6.97;;;4.60;;
9420;SDS011;4749;51.398;5.466;2022-07-23T04:39:20;6.57;;;4.47;;
9420;SDS011;4749;51.398;5.466;2022-07-23T04:41:47;4.93;;;4.43;;
9420;SDS011;4749;51.398;5.466;2022-07-23T04:44:14;5.00;;;4.50;;
9420;SDS011;4749;51.398;5.466;2022-07-23T04:46:41;6.57;;;4.43;;
9420;SDS011;4749;51.398;5.466;2022-07-23T04:49:09;4.63;;;4.07;;
9420;SDS011;4749;51.398;5.466;2022-07-23T04:51:36;4.88;;;4.35;;
9420;SDS011;4749;51.398;5.466;2022-07-23T04:54:03;6.28;;;3.90;;
9420;SDS011;4749;51.398;5.466;2022-07-23T04:56:30;3.90;;;3.50;;
9420;SDS011;4749;51.398;5.466;2022-07-23T04:58:57;4.78;;;3.60;;
9420;SDS011;4749;51.398;5.466;2022-07-23T05:01:25;4.30;;;3.53;;
9420;SDS011;4749;51.398;5.466;2022-07-23T05:03:52;5.85;;;4.25;;
9420;SDS011;4749;51.398;5.466;2022-07-23T05:06:19;5.13;;;3.55;;
9420;SDS011;4749;51.398;5.466;2022-07-23T05:08:46;4.65;;;3.72;;
9420;SDS011;4749;51.398;5.466;2022-07-23T05:11:13;4.53;;;3.78;;
9420;SDS011;4749;51.398;5.466;2022-07-23T05:13:40;4.30;;;3.85;;
9420;SDS011;4749;51.398;5.466;2022-07-23T05:16:07;6.55;;;4.40;;
9420;SDS011;4749;51.398;5.466;2022-07-23T05:18:34;4.63;;;3.92;;
9420;SDS011;4749;51.398;5.466;2022-07-23T05:21:01;6.07;;;5.07;;
9420;SDS011;4749;51.398;5.466;2022-07-23T05:23:28;6.22;;;4.85;;
9420;SDS011;4749;51.398;5.466;2022-07-23T05:25:56;7.82;;;4.97;;
9420;SDS011;4749;51.398;5.466;2022-07-23T05:28:23;6.75;;;4.78;;
9420;SDS011;4749;51.398;5.466;2022-07-23T05:30:50;6.07;;;4.70;;
9420;SDS011;4749;51.398;5.466;2022-07-23T05:33:20;6.15;;;5.38;;
9420;SDS011;4749;51.398;5.466;2022-07-23T05:35:48;6.10;;;5.35;;
9420;SDS011;4749;51.398;5.466;2022-07-23T05:38:15;6.70;;;5.38;;
9420;SDS011;4749;51.398;5.466;2022-07-23T05:40:43;6.07;;;4.88;;
9420;SDS011;4749;51.398;5.466;2022-07-23T05:43:10;6.57;;;5.20;;
9420;SDS011;4749;51.398;5.466;2022-07-23T05:45:37;9.10;;;6.28;;
9420;SDS011;4749;51.398;5.466;2022-07-23T05:48:04;7.03;;;5.03;;
9420;SDS011;4749;51.398;5.466;2022-07-23T05:50:31;7.13;;;4.55;;
9420;SDS011;4749;51.398;5.466;2022-07-23T05:52:58;10.10;;;4.72;;
9420;SDS011;4749;51.398;5.466;2022-07-23T05:55:25;6.63;;;4.70;;
9420;SDS011;4749;51.398;5.466;2022-07-23T05:57:55;9.73;;;4.50;;
9420;SDS011;4749;51.398;5.466;2022-07-23T06:00:23;5.15;;;4.40;;
9420;SDS011;4749;51.398;5.466;2022-07-23T06:02:51;5.38;;;4.32;;
9420;SDS011;4749;51.398;5.466;2022-07-23T06:05:21;7.57;;;4.35;;
9420;SDS011;4749;51.398;5.466;2022-07-23T06:07:48;7.55;;;5.53;;
9420;SDS011;4749;51.398;5.466;2022-07-23T06:10:16;5.20;;;3.97;;
9420;SDS011;4749;51.398;5.466;2022-07-23T06:12:43;6.32;;;3.85;;
9420;SDS011;4749;51.398;5.466;2022-07-23T06:15:10;5.07;;;4.32;;
9420;SDS011;4749;51.398;5.466;2022-07-23T06:17:38;6.82;;;4.13;;
9420;SDS011;4749;51.398;5.466;2022-07-23T06:20:06;7.65;;;3.80;;
9420;SDS011;4749;51.398;5.466;2022-07-23T06:22:35;4.63;;;3.88;;
9420;SDS011;4749;51.398;5.466;2022-07-23T06:25:03;3.85;;;3.45;;
9420;SDS011;4749;51.398;5.466;2022-07-23T06:27:40;4.60;;;3.90;;
9420;SDS011;4749;51.398;5.466;2022-07-23T06:30:08;4.82;;;3.60;;
9420;SDS011;4749;51.398;5.466;2022-07-23T06:32:36;4.50;;;3.70;;
9420;SDS011;4749;51.398;5.466;2022-07-23T06:35:03;5.70;;;3.90;;
9420;SDS011;4749;51.398;5.466;2022-07-23T06:37:31;6.05;;;4.07;;
9420;SDS011;4749;51.398;5.466;2022-07-23T06:39:58;6.47;;;4.00;;
9420;SDS011;4749;51.398;5.466;2022-07-23T06:42:27;6.05;;;3.35;;
9420;SDS011;4749;51.398;5.466;2022-07-23T06:44:54;6.97;;;3.40;;
9420;SDS011;4749;51.398;5.466;2022-07-23T06:47:22;4.93;;;3.55;;
9420;SDS011;4749;51.398;5.466;2022-07-23T06:49:49;3.65;;;3.08;;
9420;SDS011;4749;51.398;5.466;2022-07-23T06:52:16;3.75;;;2.85;;
9420;SDS011;4749;51.398;5.466;2022-07-23T06:54:43;5.28;;;3.05;;
9420;SDS011;4749;51.398;5.466;2022-07-23T06:57:10;2.92;;;2.63;;
9420;SDS011;4749;51.398;5.466;2022-07-23T06:59:37;4.07;;;2.58;;
9420;SDS011;4749;51.398;5.466;2022-07-23T07:02:07;4.78;;;2.60;;
9420;SDS011;4749;51.398;5.466;2022-07-23T07:04:34;4.03;;;2.38;;
9420;SDS011;4749;51.398;5.466;2022-07-23T07:07:01;6.10;;;2.80;;
9420;SDS011;4749;51.398;5.466;2022-07-23T07:09:29;3.45;;;2.40;;
9420;SDS011;4749;51.398;5.466;2022-07-23T07:11:56;2.53;;;2.30;;
9420;SDS011;4749;51.398;5.466;2022-07-23T07:14:23;3.85;;;2.20;;
9420;SDS011;4749;51.398;5.466;2022-07-23T07:16:50;3.28;;;2.00;;
9420;SDS011;4749;51.398;5.466;2022-07-23T07:19:17;3.33;;;1.60;;
9420;SDS011;4749;51.398;5.466;2022-07-23T07:21:44;3.60;;;2.08;;
9420;SDS011;4749;51.398;5.466;2022-07-23T07:24:11;3.22;;;2.30;;
9420;SDS011;4749;51.398;5.466;2022-07-23T07:26:38;3.83;;;2.28;;
9420;SDS011;4749;51.398;5.466;2022-07-23T07:29:05;3.88;;;2.20;;
9420;SDS011;4749;51.398;5.466;2022-07-23T07:31:38;3.30;;;2.42;;
9420;SDS011;4749;51.398;5.466;2022-07-23T07:34:09;4.13;;;2.05;;
9420;SDS011;4749;51.398;5.466;2022-07-23T07:36:36;4.93;;;2.28;;
9420;SDS011;4749;51.398;5.466;2022-07-23T07:39:04;4.40;;;2.20;;
9420;SDS011;4749;51.398;5.466;2022-07-23T07:41:31;2.83;;;2.08;;
9420;SDS011;4749;51.398;5.466;2022-07-23T07:43:58;4.20;;;1.88;;
9420;SDS011;4749;51.398;5.466;2022-07-23T07:46:26;4.80;;;2.45;;
9420;SDS011;4749;51.398;5.466;2022-07-23T07:48:54;3.53;;;2.08;;
9420;SDS011;4749;51.398;5.466;2022-07-23T07:51:23;3.67;;;2.10;;
9420;SDS011;4749;51.398;5.466;2022-07-23T07:53:51;3.83;;;1.90;;
9420;SDS011;4749;51.398;5.466;2022-07-23T07:56:18;3.72;;;2.00;;
9420;SDS011;4749;51.398;5.466;2022-07-23T07:58:45;4.93;;;2.70;;
9420;SDS011;4749;51.398;5.466;2022-07-23T08:01:12;4.32;;;2.13;;
9420;SDS011;4749;51.398;5.466;2022-07-23T08:03:39;3.05;;;2.13;;
9420;SDS011;4749;51.398;5.466;2022-07-23T08:06:08;3.78;;;2.03;;
9420;SDS011;4749;51.398;5.466;2022-07-23T08:08:35;5.25;;;2.45;;
9420;SDS011;4749;51.398;5.466;2022-07-23T08:11:02;4.57;;;2.00;;
9420;SDS011;4749;51.398;5.466;2022-07-23T08:13:29;3.85;;;2.25;;
9420;SDS011;4749;51.398;5.466;2022-07-23T08:15:56;5.38;;;2.50;;
9420;SDS011;4749;51.398;5.466;2022-07-23T08:18:24;2.90;;;1.92;;
9420;SDS011;4749;51.398;5.466;2022-07-23T08:20:51;5.05;;;2.60;;
9420;SDS011;4749;51.398;5.466;2022-07-23T08:23:18;3.30;;;2.33;;
9420;SDS011;4749;51.398;5.466;2022-07-23T08:25:45;5.95;;;2.47;;
9420;SDS011;4749;51.398;5.466;2022-07-23T08:28:13;3.90;;;1.90;;
9420;SDS011;4749;51.398;5.466;2022-07-23T08:30:43;3.80;;;2.20;;
9420;SDS011;4749;51.398;5.466;2022-07-23T08:33:12;3.35;;;1.70;;
9420;SDS011;4749;51.398;5.466;2022-07-23T08:36:00;3.85;;;2.33;;
9420;SDS011;4749;51.398;5.466;2022-07-23T08:38:30;3.35;;;2.00;;
9420;SDS011;4749;51.398;5.466;2022-07-23T08:40:57;4.70;;;1.88;;
9420;SDS011;4749;51.398;5.466;2022-07-23T08:43:29;2.90;;;1.67;;
9420;SDS011;4749;51.398;5.466;2022-07-23T08:45:58;3.53;;;2.00;;
9420;SDS011;4749;51.398;5.466;2022-07-23T08:48:28;3.08;;;2.22;;
9420;SDS011;4749;51.398;5.466;2022-07-23T08:50:57;3.97;;;2.30;;
9420;SDS011;4749;51.398;5.466;2022-07-23T08:53:27;4.88;;;1.90;;
9420;SDS011;4749;51.398;5.466;2022-07-23T08:55:56;3.17;;;2.20;;
9420;SDS011;4749;51.398;5.466;2022-07-23T08:58:27;2.90;;;2.17;;
9420;SDS011;4749;51.398;5.466;2022-07-23T09:00:56;6.32;;;2.47;;
9420;SDS011;4749;51.398;5.466;2022-07-23T09:03:25;4.97;;;2.40;;
9420;SDS011;4749;51.398;5.466;2022-07-23T09:05:57;2.50;;;1.90;;
9420;SDS011;4749;51.398;5.466;2022-07-23T09:11:02;4.22;;;1.75;;
9420;SDS011;4749;51.398;5.466;2022-07-23T09:13:33;3.95;;;2.03;;
9420;SDS011;4749;51.398;5.466;2022-07-23T09:16:11;3.15;;;2.00;;
9420;SDS011;4749;51.398;5.466;2022-07-23T09:19:00;2.20;;;1.60;;
9420;SDS011;4749;51.398;5.466;2022-07-23T09:21:34;3.17;;;2.35;;
9420;SDS011;4749;51.398;5.466;2022-07-23T09:26:39;3.25;;;1.90;;
9420;SDS011;4749;51.398;5.466;2022-07-23T09:29:17;2.40;;;1.88;;
9420;SDS011;4749;51.398;5.466;2022-07-23T09:31:52;2.67;;;2.40;;
9420;SDS011;4749;51.398;5.466;2022-07-23T09:34:32;2.88;;;2.58;;
9420;SDS011;4749;51.398;5.466;2022-07-23T09:37:17;3.42;;;2.08;;
9420;SDS011;4749;51.398;5.466;2022-07-23T09:39:47;3.53;;;2.10;;
9420;SDS011;4749;51.398;5.466;2022-07-23T09:42:18;3.00;;;2.00;;
9420;SDS011;4749;51.398;5.466;2022-07-23T09:44:51;3.78;;;1.83;;
9420;SDS011;4749;51.398;5.466;2022-07-23T09:47:22;2.70;;;1.85;;
9420;SDS011;4749;51.398;5.466;2022-07-23T09:52:36;3.95;;;2.42;;
9420;SDS011;4749;51.398;5.466;2022-07-23T09:55:14;2.95;;;1.90;;
9420;SDS011;4749;51.398;5.466;2022-07-23T09:57:44;2.25;;;1.80;;
9420;SDS011;4749;51.398;5.466;2022-07-23T10:00:16;2.88;;;1.88;;
9420;SDS011;4749;51.398;5.466;2022-07-23T10:02:43;4.22;;;2.30;;
9420;SDS011;4749;51.398;5.466;2022-07-23T10:05:13;4.30;;;2.35;;
9420;SDS011;4749;51.398;5.466;2022-07-23T10:07:41;3.13;;;1.85;;
9420;SDS011;4749;51.398;5.466;2022-07-23T10:10:16;1.70;;;1.60;;
9420;SDS011;4749;51.398;5.466;2022-07-23T10:12:44;5.97;;;2.25;;
9420;SDS011;4749;51.398;5.466;2022-07-23T10:15:17;2.88;;;1.73;;
9420;SDS011;4749;51.398;5.466;2022-07-23T10:17:45;5.22;;;2.70;;
9420;SDS011;4749;51.398;5.466;2022-07-23T10:20:12;3.58;;;1.88;;
9420;SDS011;4749;51.398;5.466;2022-07-23T10:22:44;4.13;;;2.42;;
9420;SDS011;4749;51.398;5.466;2022-07-23T10:25:42;4.50;;;2.28;;
9420;SDS011;4749;51.398;5.466;2022-07-23T10:29:11;2.90;;;2.00;;
9420;SDS011;4749;51.398;5.466;2022-07-23T10:31:47;3.33;;;2.28;;
9420;SDS011;4749;51.398;5.466;2022-07-23T10:37:45;3.35;;;2.85;;
9420;SDS011;4749;51.398;5.466;2022-07-23T10:40:18;4.10;;;2.72;;
9420;SDS011;4749;51.398;5.466;2022-07-23T10:42:49;4.32;;;2.53;;
9420;SDS011;4749;51.398;5.466;2022-07-23T10:51:05;2.92;;;1.83;;
9420;SDS011;4749;51.398;5.466;2022-07-23T10:59:30;3.47;;;2.15;;
9420;SDS011;4749;51.398;5.466;2022-07-23T11:02:20;3.15;;;2.00;;
9420;SDS011;4749;51.398;5.466;2022-07-23T11:04:50;3.72;;;2.15;;
9420;SDS011;4749;51.398;5.466;2022-07-23T11:07:18;3.75;;;2.50;;
9420;SDS011;4749;51.398;5.466;2022-07-23T11:09:47;2.58;;;2.15;;
9420;SDS011;4749;51.398;5.466;2022-07-23T11:15:02;2.90;;;2.08;;
9420;SDS011;4749;51.398;5.466;2022-07-23T11:20:14;3.47;;;2.28;;
9420;SDS011;4749;51.398;5.466;2022-07-23T11:25:33;2.15;;;1.95;;
9420;SDS011;4749;51.398;5.466;2022-07-23T11:28:08;2.33;;;1.83;;
9420;SDS011;4749;51.398;5.466;2022-07-23T11:30:45;2.33;;;1.90;;
9420;SDS011;4749;51.398;5.466;2022-07-23T11:35:44;2.30;;;1.80;;
9420;SDS011;4749;51.398;5.466;2022-07-23T11:38:20;3.00;;;1.77;;
9420;SDS011;4749;51.398;5.466;2022-07-23T11:40:52;5.90;;;2.28;;
9420;SDS011;4749;51.398;5.466;2022-07-23T11:43:24;3.05;;;2.40;;
9420;SDS011;4749;51.398;5.466;2022-07-23T11:45:53;2.30;;;1.80;;
9420;SDS011;4749;51.398;5.466;2022-07-23T11:48:26;3.38;;;1.98;;
9420;SDS011;4749;51.398;5.466;2022-07-23T11:50:57;2.72;;;1.95;;
9420;SDS011;4749;51.398;5.466;2022-07-23T11:53:25;2.72;;;1.92;;
9420;SDS011;4749;51.398;5.466;2022-07-23T11:56:04;4.30;;;2.40;;
9420;SDS011;4749;51.398;5.466;2022-07-23T11:58:37;2.20;;;2.00;;
9420;SDS011;4749;51.398;5.466;2022-07-23T12:01:05;3.40;;;1.80;;
9420;SDS011;4749;51.398;5.466;2022-07-23T12:03:48;2.75;;;1.63;;
9420;SDS011;4749;51.398;5.466;2022-07-23T12:06:23;3.65;;;1.50;;
9420;SDS011;4749;51.398;5.466;2022-07-23T12:08:50;2.83;;;1.67;;
9420;SDS011;4749;51.398;5.466;2022-07-23T12:11:18;3.15;;;1.80;;
9420;SDS011;4749;51.398;5.466;2022-07-23T12:13:54;2.33;;;1.80;;
9420;SDS011;4749;51.398;5.466;2022-07-23T12:16:23;2.83;;;1.98;;
9420;SDS011;4749;51.398;5.466;2022-07-23T12:18:50;2.60;;;1.70;;
9420;SDS011;4749;51.398;5.466;2022-07-23T12:21:17;1.90;;;1.70;;
9420;SDS011;4749;51.398;5.466;2022-07-23T12:23:48;2.88;;;1.73;;
9420;SDS011;4749;51.398;5.466;2022-07-23T12:26:15;1.60;;;1.48;;
9420;SDS011;4749;51.398;5.466;2022-07-23T12:28:42;1.88;;;1.70;;
9420;SDS011;4749;51.398;5.466;2022-07-23T12:31:25;2.53;;;1.40;;
9420;SDS011;4749;51.398;5.466;2022-07-23T12:33:53;1.30;;;1.20;;
9420;SDS011;4749;51.398;5.466;2022-07-23T12:36:36;2.42;;;1.60;;
9420;SDS011;4749;51.398;5.466;2022-07-23T12:39:07;3.00;;;1.50;;
9420;SDS011;4749;51.398;5.466;2022-07-23T12:41:52;2.65;;;1.80;;
9420;SDS011;4749;51.398;5.466;2022-07-23T12:44:20;1.80;;;1.33;;
9420;SDS011;4749;51.398;5.466;2022-07-23T12:46:51;1.77;;;1.30;;
9420;SDS011;4749;51.398;5.466;2022-07-23T12:49:25;2.33;;;1.30;;
9420;SDS011;4749;51.398;5.466;2022-07-23T12:51:55;1.60;;;1.30;;
9420;SDS011;4749;51.398;5.466;2022-07-23T12:54:26;1.83;;;1.40;;
9420;SDS011;4749;51.398;5.466;2022-07-23T12:56:54;1.75;;;1.48;;
9420;SDS011;4749;51.398;5.466;2022-07-23T12:59:21;2.22;;;1.40;;
9420;SDS011;4749;51.398;5.466;2022-07-23T13:01:55;2.17;;;1.60;;
9420;SDS011;4749;51.398;5.466;2022-07-23T13:04:28;1.80;;;1.30;;
9420;SDS011;4749;51.398;5.466;2022-07-23T13:06:58;3.47;;;1.70;;
9420;SDS011;4749;51.398;5.466;2022-07-23T13:09:31;2.13;;;1.58;;
9420;SDS011;4749;51.398;5.466;2022-07-23T13:12:07;2.15;;;1.45;;
9420;SDS011;4749;51.398;5.466;2022-07-23T13:14:37;2.45;;;1.60;;
9420;SDS011;4749;51.398;5.466;2022-07-23T13:17:05;3.65;;;1.80;;
9420;SDS011;4749;51.398;5.466;2022-07-23T13:19:33;1.77;;;1.50;;
9420;SDS011;4749;51.398;5.466;2022-07-23T13:22:00;6.70;;;1.90;;
9420;SDS011;4749;51.398;5.466;2022-07-23T13:24:34;1.67;;;1.50;;
9420;SDS011;4749;51.398;5.466;2022-07-23T13:27:05;3.58;;;1.60;;
9420;SDS011;4749;51.398;5.466;2022-07-23T13:29:54;1.73;;;1.50;;
9420;SDS011;4749;51.398;5.466;2022-07-23T13:32:21;2.03;;;1.70;;
9420;SDS011;4749;51.398;5.466;2022-07-23T13:34:49;2.20;;;1.60;;
9420;SDS011;4749;51.398;5.466;2022-07-23T13:37:16;2.42;;;1.65;;
9420;SDS011;4749;51.398;5.466;2022-07-23T13:39:44;2.13;;;1.60;;
9420;SDS011;4749;51.398;5.466;2022-07-23T13:42:12;3.20;;;1.70;;
9420;SDS011;4749;51.398;5.466;2022-07-23T13:44:39;2.65;;;1.30;;
9420;SDS011;4749;51.398;5.466;2022-07-23T13:47:06;2.22;;;1.30;;
9420;SDS011;4749;51.398;5.466;2022-07-23T13:49:34;5.00;;;1.58;;
9420;SDS011;4749;51.398;5.466;2022-07-23T13:52:02;2.40;;;1.40;;
9420;SDS011;4749;51.398;5.466;2022-07-23T13:54:32;3.60;;;1.30;;
9420;SDS011;4749;51.398;5.466;2022-07-23T13:57:00;2.35;;;1.60;;
9420;SDS011;4749;51.398;5.466;2022-07-23T13:59:27;2.40;;;1.60;;
9420;SDS011;4749;51.398;5.466;2022-07-23T14:01:55;1.95;;;1.50;;
9420;SDS011;4749;51.398;5.466;2022-07-23T14:04:42;2.85;;;1.60;;
9420;SDS011;4749;51.398;5.466;2022-07-23T14:07:10;2.53;;;1.60;;
9420;SDS011;4749;51.398;5.466;2022-07-23T14:09:37;2.05;;;1.73;;
9420;SDS011;4749;51.398;5.466;2022-07-23T14:12:05;1.98;;;1.58;;
9420;SDS011;4749;51.398;5.466;2022-07-23T14:14:33;3.45;;;1.42;;
9420;SDS011;4749;51.398;5.466;2022-07-23T14:17:03;2.17;;;1.70;;
9420;SDS011;4749;51.398;5.466;2022-07-23T14:19:32;1.85;;;1.55;;
9420;SDS011;4749;51.398;5.466;2022-07-23T14:22:00;3.08;;;1.65;;
9420;SDS011;4749;51.398;5.466;2022-07-23T14:24:27;3.08;;;1.45;;
9420;SDS011;4749;51.398;5.466;2022-07-23T14:27:03;2.00;;;1.45;;
9420;SDS011;4749;51.398;5.466;2022-07-23T14:29:31;1.95;;;1.63;;
9420;SDS011;4749;51.398;5.466;2022-07-23T14:32:00;2.72;;;1.60;;
9420;SDS011;4749;51.398;5.466;2022-07-23T14:34:27;1.90;;;1.30;;
9420;SDS011;4749;51.398;5.466;2022-07-23T14:36:55;1.85;;;1.50;;
9420;SDS011;4749;51.398;5.466;2022-07-23T14:39:23;3.05;;;1.60;;
9420;SDS011;4749;51.398;5.466;2022-07-23T14:41:50;2.47;;;1.58;;
9420;SDS011;4749;51.398;5.466;2022-07-23T14:44:18;2.33;;;1.60;;
9420;SDS011;4749;51.398;5.466;2022-07-23T14:46:45;3.85;;;1.40;;
9420;SDS011;4749;51.398;5.466;2022-07-23T14:49:13;3.50;;;2.05;;
9420;SDS011;4749;51.398;5.466;2022-07-23T14:51:41;1.98;;;1.70;;
9420;SDS011;4749;51.398;5.466;2022-07-23T14:54:09;3.15;;;1.85;;
9420;SDS011;4749;51.398;5.466;2022-07-23T14:56:37;2.90;;;1.73;;
9420;SDS011;4749;51.398;5.466;2022-07-23T14:59:04;1.80;;;1.45;;
9420;SDS011;4749;51.398;5.466;2022-07-23T15:01:32;4.53;;;1.75;;
9420;SDS011;4749;51.398;5.466;2022-07-23T15:04:00;2.40;;;1.73;;
9420;SDS011;4749;51.398;5.466;2022-07-23T15:06:49;1.73;;;1.50;;
9420;SDS011;4749;51.398;5.466;2022-07-23T15:09:16;2.60;;;1.70;;
9420;SDS011;4749;51.398;5.466;2022-07-23T15:11:45;1.88;;;1.60;;
9420;SDS011;4749;51.398;5.466;2022-07-23T15:14:13;2.58;;;1.73;;
9420;SDS011;4749;51.398;5.466;2022-07-23T15:17:01;2.75;;;2.15;;
9420;SDS011;4749;51.398;5.466;2022-07-23T15:19:28;3.05;;;1.60;;
9420;SDS011;4749;51.398;5.466;2022-07-23T15:21:56;3.72;;;1.90;;
9420;SDS011;4749;51.398;5.466;2022-07-23T15:24:27;2.90;;;2.20;;
9420;SDS011;4749;51.398;5.466;2022-07-23T15:26:54;2.20;;;1.60;;
9420;SDS011;4749;51.398;5.466;2022-07-23T15:29:23;3.95;;;1.92;;
9420;SDS011;4749;51.398;5.466;2022-07-23T15:31:50;3.45;;;2.20;;
9420;SDS011;4749;51.398;5.466;2022-07-23T15:34:24;2.80;;;1.70;;
9420;SDS011;4749;51.398;5.466;2022-07-23T15:36:53;4.15;;;1.80;;
9420;SDS011;4749;51.398;5.466;2022-07-23T15:39:20;2.10;;;1.90;;
9420;SDS011;4749;51.398;5.466;2022-07-23T15:41:47;1.85;;;1.70;;
9420;SDS011;4749;51.398;5.466;2022-07-23T15:44:15;2.05;;;1.70;;
9420;SDS011;4749;51.398;5.466;2022-07-23T15:46:53;2.55;;;2.08;;
9420;SDS011;4749;51.398;5.466;2022-07-23T15:49:21;2.30;;;1.60;;
9420;SDS011;4749;51.398;5.466;2022-07-23T15:51:49;2.00;;;1.75;;
9420;SDS011;4749;51.398;5.466;2022-07-23T15:54:17;2.72;;;2.25;;
9420;SDS011;4749;51.398;5.466;2022-07-23T15:56:44;4.18;;;2.47;;
9420;SDS011;4749;51.398;5.466;2022-07-23T15:59:11;2.20;;;2.00;;
9420;SDS011;4749;51.398;5.466;2022-07-23T16:01:38;3.55;;;2.05;;